Time;durP1;ratioP1;P1;durP2;ratioP2;P2;SDS_P1;SDS_P2;PMS_P1;PMS_P2;Temp;Humidity;BMP_temperature;BMP_pressure;BME280_temperature;BME280_humidity;BME280_pressure;Samples;Min_cycle;Max_cycle;Signal;HPM_P1;HPM_P2
2022/11/10 00:00:10;;;;;;;7.03;4.25;;;;;;;8.04;100.00;101521.53;10362690;28;20424;-78
2022/11/10 00:05:11;;;;;;;15.15;5.28;;;;;;;7.93;100.00;101526.03;10347455;28;20453;-78
2022/11/10 00:10:11;;;;;;;11.40;3.85;;;;;;;7.78;100.00;101537.19;10345968;28;20080;-79
2022/11/10 00:20:31;;;;;;;11.98;5.97;;;;;;;7.77;100.00;101548.41;10361675;28;20513;-80
2022/11/10 00:25:31;;;;;;;12.00;3.88;;;;;;;7.75;100.00;101547.41;10364300;28;20072;-80
2022/11/10 00:30:32;;;;;;;21.60;5.28;;;;;;;7.77;100.00;101548.41;10361836;28;20049;-80
2022/11/10 00:35:32;;;;;;;10.70;3.42;;;;;;;7.70;100.00;101560.88;10361676;28;20030;-80
2022/11/10 00:40:33;;;;;;;12.05;3.00;;;;;;;7.70;100.00;101551.38;10360630;28;20129;-79
2022/11/10 00:45:33;;;;;;;11.98;3.70;;;;;;;7.56;100.00;101557.31;10361625;28;20037;-79
2022/11/10 00:50:34;;;;;;;18.27;4.35;;;;;;;7.70;100.00;101567.03;10360432;28;20547;-80
2022/11/10 00:55:38;;;;;;;9.07;2.88;;;;;;;7.64;100.00;101575.28;10362411;28;20034;-78
2022/11/10 01:00:39;;;;;;;17.85;4.00;;;;;;;7.63;100.00;101583.91;10361415;28;20064;-80
2022/11/10 01:05:40;;;;;;;10.45;5.80;;;;;;;7.50;100.00;101573.41;10358844;28;20061;-79
2022/11/10 01:10:40;;;;;;;10.93;3.63;;;;;;;7.42;100.00;101577.16;10362327;28;20120;-78
2022/11/10 01:15:41;;;;;;;14.88;5.22;;;;;;;7.35;100.00;101584.53;10360950;28;20066;-78
2022/11/10 01:20:42;;;;;;;10.88;3.38;;;;;;;7.53;100.00;101586.66;10358783;28;20057;-79
2022/11/10 01:25:42;;;;;;;13.70;5.35;;;;;;;7.55;100.00;101585.06;10344084;28;20073;-80
2022/11/10 01:30:43;;;;;;;8.40;3.58;;;;;;;7.43;100.00;101585.09;10358655;28;20037;-80
2022/11/10 01:35:44;;;;;;;9.32;4.47;;;;;;;7.39;100.00;101602.97;10342990;28;20077;-79
2022/11/10 01:40:45;;;;;;;15.83;4.23;;;;;;;7.35;100.00;101612.28;10359026;28;20037;-79
2022/11/10 01:45:49;;;;;;;15.13;3.13;;;;;;;7.41;100.00;101624.84;10342422;28;20517;-79
2022/11/10 01:50:50;;;;;;;16.92;4.18;;;;;;;7.25;100.00;101621.13;10359794;28;20103;-79
2022/11/10 01:55:50;;;;;;;11.30;4.03;;;;;;;7.45;100.00;101619.06;10358793;28;20119;-79
2022/11/10 02:00:51;;;;;;;15.90;4.00;;;;;;;7.39;100.00;101635.16;10342133;28;20075;-79
2022/11/10 02:05:51;;;;;;;13.60;4.32;;;;;;;7.35;100.00;101646.16;10358606;28;20050;-79
2022/11/10 02:10:52;;;;;;;13.77;3.42;;;;;;;7.07;100.00;101648.38;10341901;28;20034;-79
2022/11/10 02:15:53;;;;;;;9.07;3.08;;;;;;;7.04;100.00;101654.28;10359064;28;20129;-79
2022/11/10 02:20:53;;;;;;;20.70;4.18;;;;;;;6.95;100.00;101653.59;10353890;28;20044;-79
2022/11/10 02:25:54;;;;;;;25.20;4.68;;;;;;;6.91;100.00;101652.44;10358723;28;20141;-79
2022/11/10 02:30:54;;;;;;;11.18;3.78;;;;;;;6.85;100.00;101646.78;10344951;28;20034;-79
2022/11/10 02:35:55;;;;;;;10.32;4.72;;;;;;;6.75;100.00;101651.28;10310326;28;20051;-80
2022/11/10 02:40:56;;;;;;;13.13;3.67;;;;;;;6.71;100.00;101650.97;10366297;28;20085;-78
2022/11/10 02:45:56;;;;;;;10.65;4.40;;;;;;;6.66;100.00;101657.50;10350098;28;20090;-79
2022/11/10 02:50:57;;;;;;;9.73;3.78;;;;;;;6.65;100.00;101671.31;10348257;28;20030;-80
2022/11/10 02:55:57;;;;;;;16.83;5.22;;;;;;;6.69;100.00;101682.06;10366635;28;20137;-80
2022/11/10 03:00:58;;;;;;;8.18;3.50;;;;;;;6.68;100.00;101692.34;10364719;28;20038;-78
2022/11/10 03:05:58;;;;;;;12.50;3.75;;;;;;;6.66;100.00;101694.81;10365944;28;20053;-79
2022/11/10 03:10:59;;;;;;;12.18;3.85;;;;;;;6.75;100.00;101698.13;10347824;28;20076;-80
2022/11/10 03:16:01;;;;;;;12.60;3.20;;;;;;;6.75;100.00;101698.13;10366390;28;20103;-80
2022/11/10 03:21:01;;;;;;;9.48;4.47;;;;;;;6.65;100.00;101705.13;10364097;28;20512;-79
2022/11/10 03:26:05;;;;;;;17.85;4.75;;;;;;;6.78;100.00;101706.97;10363707;28;20034;-78
2022/11/10 03:31:05;;;;;;;10.90;4.00;;;;;;;6.81;100.00;101709.78;10347857;28;20073;-78
2022/11/10 03:36:06;;;;;;;11.43;4.25;;;;;;;6.68;100.00;101710.56;10364157;28;20125;-78
2022/11/10 03:41:07;;;;;;;18.13;5.30;;;;;;;6.71;100.00;101719.50;10362674;28;20037;-78
2022/11/10 03:46:08;;;;;;;17.55;4.32;;;;;;;6.62;100.00;101726.59;10364983;28;20064;-78
2022/11/10 03:51:08;;;;;;;12.50;5.47;;;;;;;6.79;100.00;101726.97;10363265;28;20081;-79
2022/11/10 03:56:09;;;;;;;18.90;4.90;;;;;;;6.71;100.00;101755.91;10364472;28;20125;-79
2022/11/10 04:01:10;;;;;;;10.95;4.70;;;;;;;6.70;100.00;101754.09;10344975;28;20060;-79
2022/11/10 04:16:49;;;;;;;16.05;4.15;;;;;;;6.42;100.00;101772.75;10362240;28;20042;-79
2022/11/10 04:21:49;;;;;;;18.00;6.30;;;;;;;6.51;100.00;101783.00;10361464;28;20120;-78
2022/11/10 04:26:50;;;;;;;16.00;3.92;;;;;;;6.42;100.00;101793.56;10344986;28;20064;-78
2022/11/10 04:31:50;;;;;;;12.75;3.80;;;;;;;6.35;100.00;101800.75;10361787;28;20049;-79
2022/11/10 04:36:51;;;;;;;14.98;4.70;;;;;;;6.37;100.00;101801.78;10359858;28;20149;-78
2022/11/10 04:41:51;;;;;;;17.23;4.45;;;;;;;6.34;100.00;101811.94;10360838;28;20061;-82
2022/11/10 04:46:52;;;;;;;13.48;4.95;;;;;;;6.23;100.00;101832.78;10361386;28;20072;-80
2022/11/10 04:51:52;;;;;;;17.15;5.28;;;;;;;6.27;100.00;101828.72;10360827;28;20478;-77
2022/11/10 04:56:53;;;;;;;13.13;6.07;;;;;;;6.15;100.00;101842.56;10359094;28;20042;-78
2022/11/10 05:01:54;;;;;;;18.50;6.25;;;;;;;6.12;100.00;101846.63;10361598;28;20120;-78
2022/11/10 05:06:55;;;;;;;12.93;5.07;;;;;;;6.06;100.00;101853.91;10358728;28;20050;-80
2022/11/10 05:11:55;;;;;;;16.95;5.25;;;;;;;6.12;100.00;101873.50;10361164;28;20044;-81
2022/11/10 05:16:56;;;;;;;22.15;4.70;;;;;;;6.05;100.00;101873.78;10360763;28;20556;-78
2022/11/10 05:21:56;;;;;;;13.82;5.97;;;;;;;5.96;100.00;101881.72;10359991;28;20041;-79
2022/11/10 05:26:57;;;;;;;23.38;7.03;;;;;;;6.01;100.00;101877.84;10359442;28;20371;-79
2022/11/10 05:31:57;;;;;;;15.30;5.95;;;;;;;6.08;100.00;101891.34;10359119;28;20044;-78
2022/11/10 05:36:57;;;;;;;16.40;4.97;;;;;;;5.93;100.00;101891.84;10368168;28;20498;-78
2022/11/10 05:41:58;;;;;;;15.48;4.30;;;;;;;6.09;100.00;101893.16;10358288;28;20125;-79
2022/11/10 05:46:59;;;;;;;16.63;4.50;;;;;;;6.20;100.00;101901.81;10355007;28;20845;-77
2022/11/10 05:51:59;;;;;;;18.20;4.97;;;;;;;6.26;100.00;101918.84;10354669;28;20053;-78
2022/11/10 05:57:00;;;;;;;15.32;6.43;;;;;;;6.28;100.00;101909.47;10335685;28;20543;-77
2022/11/10 06:02:00;;;;;;;18.20;4.32;;;;;;;6.24;100.00;101904.81;10356678;28;20034;-79
2022/11/10 06:07:01;;;;;;;19.42;4.82;;;;;;;6.20;100.00;101907.00;10352721;28;20562;-79
2022/11/10 06:12:02;;;;;;;18.83;5.53;;;;;;;6.29;100.00;101916.50;10359205;28;20050;-80
2022/11/10 06:17:02;;;;;;;24.55;9.40;;;;;;;6.34;100.00;101921.16;10356260;28;20089;-82
2022/11/10 06:22:03;;;;;;;12.55;4.03;;;;;;;6.28;100.00;101919.88;10353438;28;20128;-81
2022/11/10 06:27:04;;;;;;;17.92;3.53;;;;;;;6.32;100.00;101937.53;10355848;28;20394;-79
2022/11/10 06:32:05;;;;;;;14.18;5.43;;;;;;;6.02;100.00;101948.91;10358518;28;20121;-80
2022/11/10 06:37:05;;;;;;;19.75;5.00;;;;;;;6.01;100.00;101955.81;10357023;28;20402;-80
2022/11/10 06:42:06;;;;;;;20.63;6.15;;;;;;;6.19;100.00;101955.50;10341577;28;20034;-80
2022/11/10 06:47:07;;;;;;;14.50;4.20;;;;;;;6.13;100.00;101961.09;10339793;28;20057;-80
2022/11/10 06:52:08;;;;;;;12.85;4.70;;;;;;;6.08;100.00;101975.41;10356973;28;20116;-79
2022/11/10 06:57:08;;;;;;;10.88;4.90;;;;;;;6.15;100.00;101998.53;10357385;28;20049;-78
2022/11/10 07:02:12;;;;;;;16.85;4.28;;;;;;;6.11;100.00;102000.75;10357664;28;20095;-79
2022/11/10 07:07:13;;;;;;;10.52;4.97;;;;;;;6.26;100.00;102015.03;10340025;28;20053;-79
2022/11/10 07:12:13;;;;;;;18.08;5.13;;;;;;;6.47;100.00;102020.19;10356316;28;20406;-79
2022/11/10 07:17:14;;;;;;;19.95;4.43;;;;;;;6.34;100.00;102022.56;10341948;28;20083;-80
2022/11/10 07:22:14;;;;;;;16.17;5.15;;;;;;;6.54;100.00;102030.34;10360769;28;20049;-79
2022/11/10 07:27:15;;;;;;;19.20;5.80;;;;;;;6.47;100.00;102028.00;10347948;28;20452;-80
2022/11/10 07:32:15;;;;;;;17.55;5.30;;;;;;;6.45;100.00;102030.47;10347523;28;20561;-80
2022/11/10 07:37:16;;;;;;;17.65;7.57;;;;;;;6.67;100.00;102046.94;10360574;28;20056;-80
2022/11/10 07:42:16;;;;;;;15.20;4.05;;;;;;;6.83;100.00;102059.50;10362654;28;20427;-79
2022/11/10 07:47:17;;;;;;;13.02;4.50;;;;;;;6.92;100.00;102069.78;10367692;28;20051;-78
2022/11/10 07:52:17;;;;;;;18.88;3.88;;;;;;;7.02;100.00;102075.84;10374200;28;20557;-78
2022/11/10 07:57:18;;;;;;;17.30;3.47;;;;;;;7.04;100.00;102081.19;10396005;28;20050;-79
2022/11/10 08:02:18;;;;;;;23.58;6.43;;;;;;;7.17;100.00;102093.50;10361057;28;20108;-79
2022/11/10 08:07:19;;;;;;;16.98;4.45;;;;;;;7.33;100.00;102088.75;10360587;28;20110;-79
2022/11/10 08:12:19;;;;;;;18.98;3.95;;;;;;;7.43;100.00;102087.81;10359488;28;20042;-79
2022/11/10 08:17:20;;;;;;;25.58;10.88;;;;;;;7.61;100.00;102106.59;10362858;28;20069;-78
2022/11/10 08:22:20;;;;;;;19.58;8.73;;;;;;;7.94;100.00;102098.72;10364689;28;20478;-79
2022/11/10 08:27:21;;;;;;;18.77;4.38;;;;;;;7.99;100.00;102101.66;10370110;28;20048;-78
2022/11/10 08:32:22;;;;;;;12.98;4.97;;;;;;;8.25;100.00;102101.09;10363342;28;20044;-78
2022/11/10 08:37:23;;;;;;;14.90;3.85;;;;;;;8.42;100.00;102109.28;10362288;28;20037;-78
2022/11/10 08:42:23;;;;;;;13.65;4.57;;;;;;;8.59;100.00;102118.44;10344933;28;20057;-78
2022/11/10 08:47:24;;;;;;;18.58;4.88;;;;;;;8.82;100.00;102117.56;10362349;28;20497;-79
2022/11/10 08:52:24;;;;;;;20.02;4.28;;;;;;;9.22;100.00;102116.97;10363035;28;20038;-79
2022/11/10 08:57:25;;;;;;;19.95;4.32;;;;;;;9.57;100.00;102118.63;10359898;28;20052;-78
2022/11/10 09:02:25;;;;;;;15.68;4.00;;;;;;;9.91;100.00;102117.53;10360516;28;20529;-79
2022/11/10 09:07:26;;;;;;;11.82;4.13;;;;;;;10.19;97.77;102108.97;10361928;28;20046;-79
2022/11/10 09:12:26;;;;;;;11.68;3.50;;;;;;;10.46;97.40;102130.03;10363305;28;20564;-78
2022/11/10 09:17:27;;;;;;;11.73;2.80;;;;;;;10.76;96.96;102125.94;10359189;28;20070;-78
2022/11/10 09:22:28;;;;;;;15.20;4.25;;;;;;;10.99;94.21;102137.03;10361501;28;20044;-78
2022/11/10 09:27:28;;;;;;;9.52;3.92;;;;;;;11.23;93.23;102135.16;10360205;28;20049;-79
2022/11/10 09:32:30;;;;;;;11.25;4.15;;;;;;;11.51;90.00;102139.56;10342884;28;20030;-79
2022/11/10 09:37:31;;;;;;;;;;;;;;;12.64;85.26;102145.63;10360813;28;20034;-77
2022/11/10 09:42:37;;;;;;;10.48;3.90;;;;;;;15.17;72.56;102150.50;10360558;28;19933;-78
2022/11/10 09:47:41;;;;;;;11.68;3.50;;;;;;;17.05;63.35;102156.34;10360818;28;20053;-79
2022/11/10 09:52:42;;;;;;;10.45;3.30;;;;;;;17.85;59.71;102167.47;10359821;28;20045;-78
2022/11/10 09:57:42;;;;;;;9.70;3.88;;;;;;;18.06;57.50;102171.81;10342198;28;20030;-80
2022/11/10 10:02:46;;;;;;;12.50;3.70;;;;;;;19.20;52.89;102159.03;10360244;28;20034;-78
2022/11/10 10:08:10;;;;;;;11.70;2.92;;;;;;;18.87;53.96;102169.34;10341455;28;20045;-79
2022/11/10 10:13:29;;;;;;;10.95;3.22;;;;;;;19.32;52.05;102176.19;10344263;28;20056;-78
2022/11/10 10:18:39;;;;;;;15.75;4.93;;;;;;;19.57;51.83;102172.53;10359515;28;20483;-78
2022/11/10 10:23:49;;;;;;;7.95;2.83;;;;;;;19.69;51.11;102174.69;10358118;28;20030;-78
2022/11/10 10:28:50;;;;;;;12.77;3.53;;;;;;;19.80;50.38;102167.03;10325174;28;20435;-78
2022/11/10 10:33:50;;;;;;;6.85;2.17;;;;;;;19.84;50.40;102160.09;10341684;28;20045;-78
2022/11/10 10:39:15;;;;;;;10.68;2.63;;;;;;;19.57;50.52;102156.63;10341285;28;20065;-79
2022/11/10 10:44:17;;;;;;;8.10;2.75;;;;;;;19.59;49.86;102175.25;10359207;28;20041;-78
2022/11/10 10:49:22;;;;;;;9.68;2.80;;;;;;;19.13;51.13;102180.91;10358116;28;20379;-80
2022/11/10 10:54:28;;;;;;;13.07;4.70;;;;;;;18.41;53.35;102177.50;10348390;28;20030;-79
2022/11/10 10:59:28;;;;;;;11.88;3.38;;;;;;;17.44;55.67;102187.91;10366724;28;20042;-79
2022/11/10 11:04:33;;;;;;;13.32;3.05;;;;;;;16.83;58.53;102181.84;10350087;28;20126;-79
2022/11/10 11:09:43;;;;;;;17.98;3.20;;;;;;;16.70;60.24;102201.56;10349676;28;20034;-79
2022/11/10 11:14:43;;;;;;;8.63;2.97;;;;;;;17.62;56.10;102208.94;10364603;28;20125;-79
2022/11/10 11:19:44;;;;;;;10.55;3.20;;;;;;;17.35;57.36;102201.69;10366532;28;20091;-80
2022/11/10 11:25:00;;;;;;;9.13;2.42;;;;;;;16.51;59.11;102206.03;10363732;28;20033;-79
2022/11/10 11:30:02;;;;;;;13.68;2.65;;;;;;;16.48;60.58;102216.47;10365390;28;20030;-80
2022/11/10 11:35:25;;;;;;;12.65;4.20;;;;;;;17.01;56.16;102216.16;10364614;28;20033;-79
2022/11/10 11:40:42;;;;;;;9.52;2.45;;;;;;;17.07;57.70;102218.13;10362148;28;20041;-78
2022/11/10 11:45:52;;;;;;;8.65;2.08;;;;;;;17.22;55.82;102207.31;10349902;28;20038;-79
2022/11/10 11:50:58;;;;;;;7.97;2.85;;;;;;;16.95;56.51;102223.78;10346587;28;20030;-78
2022/11/10 11:56:23;;;;;;;6.10;2.30;;;;;;;17.44;54.77;102222.31;10348146;28;20071;-79
2022/11/10 12:01:27;;;;;;;8.18;2.08;;;;;;;17.30;56.19;102232.34;10364413;28;20038;-78
2022/11/10 12:06:49;;;;;;;8.05;1.60;;;;;;;17.69;53.65;102241.84;10393885;28;20374;-77
2022/11/10 12:12:04;;;;;;;6.18;2.67;;;;;;;17.48;54.83;102236.59;10349447;28;20487;-78
2022/11/10 12:17:27;;;;;;;10.75;1.85;;;;;;;17.68;53.81;102250.63;10379865;28;20050;-77
2022/11/10 12:22:46;;;;;;;12.32;3.03;;;;;;;18.60;51.35;102252.38;10336530;28;20108;-77
2022/11/10 12:27:54;;;;;;;11.88;2.55;;;;;;;20.01;48.52;102258.91;10394054;28;20038;-78
2022/11/10 12:33:03;;;;;;;6.03;1.85;;;;;;;19.71;48.50;102263.28;10361336;28;20474;-78
2022/11/10 12:38:13;;;;;;;7.45;1.60;;;;;;;17.86;51.92;102264.59;10361557;28;20045;-79
2022/11/10 12:43:34;;;;;;;8.27;4.20;;;;;;;18.77;51.23;102275.13;10362265;28;20184;-78
2022/11/10 12:48:54;;;;;;;5.10;1.40;;;;;;;19.42;48.18;102267.63;10361845;28;20099;-79
2022/11/10 12:53:55;;;;;;;9.25;1.88;;;;;;;20.50;46.88;102273.66;10321803;28;20137;-78
2022/11/10 12:59:14;;;;;;;3.63;1.80;;;;;;;20.47;45.68;102272.69;10363611;28;20038;-79
2022/11/10 13:04:15;;;;;;;8.65;2.03;;;;;;;19.94;46.57;102272.00;10360108;28;20058;-79
2022/11/10 13:09:35;;;;;;;8.93;1.95;;;;;;;19.48;48.14;102263.44;10329233;28;20077;-78
2022/11/10 13:14:37;;;;;;;11.70;3.20;;;;;;;19.94;47.02;102268.47;10360937;28;20501;-78
2022/11/10 13:19:37;;;;;;;6.45;2.15;;;;;;;19.66;47.65;102263.13;10359913;28;20061;-79
2022/11/10 13:24:39;;;;;;;9.82;2.20;;;;;;;19.60;47.94;102278.84;10360045;28;20137;-78
2022/11/10 13:29:46;;;;;;;7.00;1.95;;;;;;;20.07;46.33;102281.28;10359090;28;20037;-78
2022/11/10 13:34:46;;;;;;;8.18;2.65;;;;;;;19.42;47.52;102278.25;10361772;28;20068;-78
2022/11/10 13:39:47;;;;;;;6.78;1.80;;;;;;;18.91;49.48;102293.28;10359029;28;20167;-77
2022/11/10 13:44:48;;;;;;;6.20;2.42;;;;;;;18.67;50.69;102288.00;10342278;28;20068;-78
2022/11/10 13:49:51;;;;;;;8.90;2.38;;;;;;;17.89;53.39;102299.16;10358937;28;20034;-78
2022/11/10 13:55:01;;;;;;;8.20;3.15;;;;;;;16.72;55.73;102303.00;10360520;28;20450;-78
2022/11/10 14:00:16;;;;;;;13.70;2.78;;;;;;;15.68;60.01;102296.34;10359023;28;20041;-78
2022/11/10 14:05:37;;;;;;;8.30;2.58;;;;;;;14.88;62.77;102297.56;10358528;28;20108;-77
2022/11/10 14:10:57;;;;;;;11.50;3.60;;;;;;;14.34;65.04;102296.41;10360753;28;20099;-77
2022/11/10 14:15:58;;;;;;;5.22;2.47;;;;;;;13.97;67.43;102290.84;10359166;28;20034;-77
2022/11/10 14:21:00;;;;;;;9.43;2.55;;;;;;;13.67;68.95;102297.06;10341740;28;20509;-77
2022/11/10 14:26:03;;;;;;;14.45;2.03;;;;;;;13.62;69.08;102288.00;10343148;28;20033;-77
2022/11/10 14:31:04;;;;;;;5.60;1.50;;;;;;;13.45;69.92;102287.03;10367214;28;20037;-78
2022/11/10 14:36:07;;;;;;;8.80;1.70;;;;;;;13.27;70.55;102282.47;10349325;28;20049;-78
2022/11/10 14:41:16;;;;;;;8.88;1.83;;;;;;;13.10;71.12;102289.31;10350466;28;20034;-77
2022/11/10 14:46:22;;;;;;;7.10;1.63;;;;;;;12.94;71.95;102295.41;10349770;28;20050;-77
2022/11/10 14:51:22;;;;;;;6.90;1.38;;;;;;;12.84;72.64;102303.53;10350214;28;20034;-77
2022/11/10 14:56:30;;;;;;;9.50;1.85;;;;;;;12.62;74.08;102310.09;10365026;28;20038;-78
2022/11/10 15:01:35;;;;;;;12.27;3.60;;;;;;;12.31;75.99;102302.91;10365393;28;20414;-78
2022/11/10 15:06:36;;;;;;;4.63;2.47;;;;;;;12.33;75.88;102291.66;10365414;28;20041;-78
2022/11/10 15:11:37;;;;;;;6.82;2.03;;;;;;;12.19;76.32;102287.25;10348526;28;20117;-78
2022/11/10 15:16:38;;;;;;;10.43;2.40;;;;;;;12.00;77.11;102291.34;10365887;28;20034;-78
2022/11/10 15:21:39;;;;;;;10.68;2.58;;;;;;;11.79;78.47;102306.56;10364062;28;20064;-78
2022/11/10 15:26:39;;;;;;;7.00;2.13;;;;;;;11.73;78.49;102306.16;10348410;28;20080;-77
2022/11/10 15:31:41;;;;;;;7.90;2.38;;;;;;;11.62;79.35;102308.06;10347438;28;20034;-77
2022/11/10 15:36:42;;;;;;;8.45;4.03;;;;;;;11.49;80.35;102321.16;10329715;28;20149;-77
2022/11/10 15:41:44;;;;;;;4.22;2.13;;;;;;;11.28;80.92;102317.19;10347941;28;20146;-77
2022/11/10 15:46:44;;;;;;;8.65;2.05;;;;;;;11.17;82.18;102318.19;10346944;28;20042;-77
2022/11/10 15:51:45;;;;;;;6.13;2.63;;;;;;;10.95;82.95;102336.72;10362994;28;20088;-77
2022/11/10 15:56:45;;;;;;;17.38;3.83;;;;;;;10.75;84.62;102328.38;10361926;28;20034;-77
2022/11/10 16:01:46;;;;;;;7.60;2.55;;;;;;;10.67;84.35;102340.97;10364592;28;20092;-77
2022/11/10 16:06:46;;;;;;;9.48;2.22;;;;;;;10.62;85.40;102351.88;10362032;28;20160;-78
2022/11/10 16:11:47;;;;;;;7.07;2.85;;;;;;;10.33;85.61;102359.44;10382835;28;20055;-77
2022/11/10 16:16:47;;;;;;;9.32;2.70;;;;;;;10.17;87.32;102370.47;10389972;28;20125;-77
2022/11/10 16:21:48;;;;;;;9.20;2.30;;;;;;;10.02;89.18;102371.97;10370652;28;20096;-77
2022/11/10 16:26:48;;;;;;;13.90;2.72;;;;;;;9.84;90.46;102372.41;10372830;28;20482;-79
2022/11/10 16:31:49;;;;;;;8.68;1.85;;;;;;;9.81;91.00;102380.97;10370221;28;20068;-79
2022/11/10 16:36:50;;;;;;;12.80;2.92;;;;;;;9.78;90.89;102377.19;10343356;28;20145;-79
2022/11/10 16:41:50;;;;;;;14.80;2.20;;;;;;;9.73;91.54;102383.78;10386627;28;20061;-79
2022/11/10 16:46:56;;;;;;;7.05;1.98;;;;;;;9.78;92.04;102393.81;10385681;28;20043;-78
2022/11/10 16:51:56;;;;;;;13.60;3.42;;;;;;;9.87;91.07;102393.56;10334005;28;20125;-78
2022/11/10 16:56:57;;;;;;;7.35;2.40;;;;;;;9.88;91.37;102402.34;10320966;28;20518;-77
2022/11/10 17:01:57;;;;;;;6.13;3.70;;;;;;;9.75;91.97;102414.50;10325301;28;20042;-77
2022/11/10 17:06:58;;;;;;;9.80;1.98;;;;;;;9.52;93.11;102424.09;10355204;28;20049;-80
2022/11/10 17:11:58;;;;;;;14.45;4.68;;;;;;;9.52;94.07;102413.66;10342349;28;20061;-78
2022/11/10 17:16:59;;;;;;;12.60;5.32;;;;;;;9.52;94.34;102423.19;10333369;28;20096;-77
2022/11/10 17:22:00;;;;;;;11.60;6.28;;;;;;;9.62;94.24;102432.66;10353217;28;20057;-77
2022/11/10 17:27:00;;;;;;;18.33;9.25;;;;;;;9.67;93.60;102444.38;10358306;28;20065;-78
2022/11/10 17:32:05;;;;;;;10.27;3.95;;;;;;;9.87;91.45;102445.88;10350642;28;20136;-79
2022/11/10 17:37:08;;;;;;;7.80;2.65;;;;;;;9.90;91.16;102458.28;10359137;28;20045;-78
2022/11/10 17:42:11;;;;;;;8.68;3.53;;;;;;;9.75;90.86;102442.31;10352266;28;20073;-78
2022/11/10 17:47:11;;;;;;;;;;;;;;;9.74;90.56;102464.97;10331295;28;20070;-77
2022/11/10 17:52:13;;;;;;;10.45;2.55;;;;;;;9.66;90.94;102466.97;10349198;28;20364;-77
2022/11/10 17:57:14;;;;;;;5.53;2.50;;;;;;;9.50;91.62;102457.06;10322692;28;20049;-79
2022/11/10 18:02:14;;;;;;;9.50;3.28;;;;;;;9.49;91.62;102464.75;10348230;28;20977;-78
2022/11/10 18:07:15;;;;;;;10.35;4.03;;;;;;;9.54;91.89;102463.41;10339232;28;20030;-77
2022/11/10 18:12:16;;;;;;;9.20;2.65;;;;;;;9.30;92.35;102472.88;10357868;28;20068;-77
2022/11/10 18:17:16;;;;;;;11.55;3.53;;;;;;;9.22;93.28;102473.19;10354967;28;20494;-78
2022/11/10 18:22:17;;;;;;;7.70;3.13;;;;;;;9.25;92.96;102468.19;10357846;28;20456;-77
2022/11/10 18:27:18;;;;;;;9.15;3.88;;;;;;;9.09;92.79;102484.34;10353643;28;20084;-78
2022/11/10 18:32:18;;;;;;;7.68;3.53;;;;;;;8.91;94.62;102489.03;10340907;28;20117;-77
2022/11/10 18:37:19;;;;;;;6.38;3.38;;;;;;;8.83;96.57;102497.94;10359057;28;20034;-78
2022/11/10 18:42:20;;;;;;;11.00;5.88;;;;;;;8.73;96.76;102493.66;10358554;28;20084;-77
2022/11/10 18:47:20;;;;;;;7.63;3.28;;;;;;;8.73;96.38;102496.28;10356475;28;20050;-77
2022/11/10 18:52:21;;;;;;;8.73;3.35;;;;;;;8.57;96.74;102498.41;10357123;28;20050;-77
2022/11/10 18:57:21;;;;;;;7.45;3.05;;;;;;;8.47;98.22;102495.00;10357681;28;20149;-77
2022/11/10 19:02:22;;;;;;;19.55;3.70;;;;;;;8.62;97.71;102508.47;10355342;28;20081;-77
2022/11/10 19:07:23;;;;;;;12.02;3.75;;;;;;;8.51;97.62;102512.78;10357667;28;20498;-77
2022/11/10 19:12:23;;;;;;;12.48;3.42;;;;;;;8.45;97.95;102508.75;10359239;28;20053;-77
2022/11/10 19:17:24;;;;;;;11.10;5.75;;;;;;;8.47;97.90;102507.16;10366653;28;20058;-77
2022/11/10 19:22:24;;;;;;;10.20;7.38;;;;;;;8.37;98.85;102502.88;10364683;28;20056;-78
2022/11/10 19:27:25;;;;;;;7.57;4.05;;;;;;;8.29;98.59;102494.41;10365096;28;20038;-78
2022/11/10 19:32:25;;;;;;;11.88;3.50;;;;;;;8.29;99.31;102502.25;10346522;28;20057;-77
2022/11/10 19:37:26;;;;;;;8.13;3.83;;;;;;;8.23;99.60;102492.19;10362449;28;20049;-77
2022/11/10 19:42:26;;;;;;;7.93;4.97;;;;;;;8.11;99.49;102506.81;10363812;28;20030;-77
2022/11/10 19:47:29;;;;;;;8.88;4.03;;;;;;;7.94;100.00;102516.75;10364512;28;20099;-77
2022/11/10 19:52:29;;;;;;;;;;;;;;;8.02;100.00;102520.00;10364881;28;20054;-78
2022/11/10 19:57:29;;;;;;;7.30;3.92;;;;;;;7.96;100.00;102515.97;10365189;28;19924;-78
2022/11/10 20:02:30;;;;;;;5.35;3.70;;;;;;;7.94;100.00;102508.91;10362186;28;20128;-78
2022/11/10 20:12:49;;;;;;;17.45;4.55;;;;;;;7.64;100.00;102521.16;10362739;28;20253;-78
2022/11/10 20:17:50;;;;;;;9.23;3.53;;;;;;;7.60;100.00;102531.19;10363040;28;20041;-78
2022/11/10 20:22:50;;;;;;;8.30;4.32;;;;;;;7.59;100.00;102525.06;10345583;28;20550;-79
2022/11/10 20:27:53;;;;;;;9.02;6.25;;;;;;;7.72;100.00;102532.25;10360103;28;20114;-78
2022/11/10 20:32:54;;;;;;;;;;;;;;;7.77;100.00;102533.56;10358199;28;20057;-78
2022/11/10 20:37:56;;;;;;;9.15;4.88;;;;;;;7.71;100.00;102527.84;10361266;28;19921;-77
2022/11/10 20:42:57;;;;;;;6.75;4.07;;;;;;;7.70;100.00;102532.91;10358933;28;20072;-78
2022/11/10 20:47:58;;;;;;;14.85;4.70;;;;;;;7.65;100.00;102529.91;10359650;28;20045;-77
2022/11/10 20:52:59;;;;;;;8.13;3.85;;;;;;;7.65;100.00;102542.94;10343786;28;20426;-77
2022/11/10 20:57:59;;;;;;;9.07;4.70;;;;;;;7.79;100.00;102538.91;10360512;28;20038;-77
2022/11/10 21:03:00;;;;;;;8.60;5.07;;;;;;;7.84;100.00;102557.56;10361732;28;20061;-78
2022/11/10 21:08:00;;;;;;;12.85;3.88;;;;;;;7.72;100.00;102554.78;10356996;28;20042;-78
2022/11/10 21:13:01;;;;;;;8.02;4.15;;;;;;;7.81;100.00;102563.41;10358830;28;20434;-78
2022/11/10 21:18:01;;;;;;;8.82;3.65;;;;;;;7.84;100.00;102558.44;10361469;28;20570;-78
2022/11/10 21:23:02;;;;;;;9.25;3.55;;;;;;;7.69;100.00;102560.66;10361148;28;20045;-78
2022/11/10 21:28:03;;;;;;;7.57;4.07;;;;;;;7.54;100.00;102573.25;10358606;28;20069;-78
2022/11/10 21:33:05;;;;;;;12.30;3.67;;;;;;;7.40;100.00;102578.94;10359149;28;20053;-77
2022/11/10 21:38:05;;;;;;;12.03;3.70;;;;;;;7.44;100.00;102576.78;10358551;28;20064;-78
2022/11/10 21:43:06;;;;;;;11.30;6.65;;;;;;;7.49;100.00;102561.53;10359126;28;20040;-78
2022/11/10 21:48:07;;;;;;;17.73;4.50;;;;;;;7.52;100.00;102564.41;10359831;28;20447;-79
2022/11/10 21:53:08;;;;;;;11.13;4.63;;;;;;;7.37;100.00;102552.63;10342760;28;20042;-77
2022/11/10 21:58:08;;;;;;;10.88;4.45;;;;;;;7.49;100.00;102569.34;10341718;28;20507;-77
2022/11/10 22:03:09;;;;;;;11.98;4.00;;;;;;;7.39;100.00;102572.84;10359500;28;20103;-77
2022/11/10 22:08:09;;;;;;;9.05;4.55;;;;;;;7.56;100.00;102570.81;10358501;28;20112;-77
2022/11/10 22:18:40;;;;;;;7.32;4.05;;;;;;;7.76;100.00;102570.84;10357982;28;20042;-77
2022/11/10 22:28:59;;;;;;;10.60;4.40;;;;;;;7.67;100.00;102587.34;10380837;28;20038;-77
2022/11/10 22:34:00;;;;;;;10.48;4.38;;;;;;;7.54;100.00;102599.31;10383266;28;20069;-77
2022/11/10 22:39:01;;;;;;;8.52;4.65;;;;;;;7.53;100.00;102602.69;10381229;28;20038;-77
2022/11/10 22:44:05;;;;;;;9.48;4.13;;;;;;;7.49;100.00;102600.59;10357266;28;20034;-77
2022/11/10 22:49:09;;;;;;;8.88;4.95;;;;;;;7.35;100.00;102589.88;10412826;28;20124;-77
2022/11/10 22:54:11;;;;;;;9.82;4.10;;;;;;;7.29;100.00;102591.94;10391066;28;20036;-77
2022/11/10 22:59:11;;;;;;;;;;;;;;;7.20;100.00;102602.47;10391720;28;20359;-77
2022/11/10 23:04:14;;;;;;;10.57;4.82;;;;;;;7.05;100.00;102620.22;10389981;28;19929;-77
2022/11/10 23:09:15;;;;;;;13.73;4.85;;;;;;;6.99;100.00;102642.19;10390677;28;20042;-77
2022/11/10 23:14:15;;;;;;;11.85;4.75;;;;;;;7.05;100.00;102637.56;10397752;28;20026;-77
2022/11/10 23:19:16;;;;;;;11.57;5.25;;;;;;;6.90;100.00;102643.19;10375464;28;20042;-77
2022/11/10 23:24:19;;;;;;;9.60;4.47;;;;;;;6.79;100.00;102649.09;10364409;28;20045;-77
2022/11/10 23:29:20;;;;;;;14.15;4.38;;;;;;;6.84;100.00;102650.44;10380678;28;20053;-78
2022/11/10 23:34:20;;;;;;;9.90;5.47;;;;;;;6.75;100.00;102647.91;10406967;28;20120;-77